sensor_id;sensor_type;location;lat;lon;timestamp;P1;durP1;ratioP1;P2;durP2;ratioP2
2930;SDS011;1475;51.454;7.150;2022-07-04T00:01:14;2.60;;;1.50;;
2930;SDS011;1475;51.454;7.150;2022-07-04T00:03:40;3.60;;;1.50;;
2930;SDS011;1475;51.454;7.150;2022-07-04T00:06:08;2.70;;;1.60;;
2930;SDS011;1475;51.454;7.150;2022-07-04T00:08:35;4.43;;;1.48;;
2930;SDS011;1475;51.454;7.150;2022-07-04T00:11:02;4.15;;;1.67;;
2930;SDS011;1475;51.454;7.150;2022-07-04T00:13:29;3.10;;;1.50;;
2930;SDS011;1475;51.454;7.150;2022-07-04T00:15:56;3.53;;;1.50;;
2930;SDS011;1475;51.454;7.150;2022-07-04T00:18:23;3.00;;;1.60;;
2930;SDS011;1475;51.454;7.150;2022-07-04T00:20:51;3.00;;;1.50;;
2930;SDS011;1475;51.454;7.150;2022-07-04T00:23:18;2.40;;;1.20;;
2930;SDS011;1475;51.454;7.150;2022-07-04T00:25:45;3.05;;;1.40;;
2930;SDS011;1475;51.454;7.150;2022-07-04T00:28:12;4.28;;;1.52;;
2930;SDS011;1475;51.454;7.150;2022-07-04T00:30:38;3.80;;;1.67;;
2930;SDS011;1475;51.454;7.150;2022-07-04T00:33:06;4.20;;;1.70;;
2930;SDS011;1475;51.454;7.150;2022-07-04T00:35:37;3.78;;;1.58;;
2930;SDS011;1475;51.454;7.150;2022-07-04T00:38:05;2.90;;;1.40;;
2930;SDS011;1475;51.454;7.150;2022-07-04T00:40:32;4.65;;;1.90;;
2930;SDS011;1475;51.454;7.150;2022-07-04T00:42:59;4.77;;;2.40;;
2930;SDS011;1475;51.454;7.150;2022-07-04T00:45:27;4.97;;;1.93;;
2930;SDS011;1475;51.454;7.150;2022-07-04T00:47:54;3.95;;;1.77;;
2930;SDS011;1475;51.454;7.150;2022-07-04T00:50:21;3.47;;;1.92;;
2930;SDS011;1475;51.454;7.150;2022-07-04T00:52:48;4.70;;;2.20;;
2930;SDS011;1475;51.454;7.150;2022-07-04T00:55:16;3.80;;;2.00;;
2930;SDS011;1475;51.454;7.150;2022-07-04T00:57:43;6.78;;;3.25;;
2930;SDS011;1475;51.454;7.150;2022-07-04T01:00:10;6.80;;;3.53;;
2930;SDS011;1475;51.454;7.150;2022-07-04T01:02:37;4.25;;;2.40;;
2930;SDS011;1475;51.454;7.150;2022-07-04T01:05:04;3.83;;;2.20;;
2930;SDS011;1475;51.454;7.150;2022-07-04T01:07:32;4.10;;;2.60;;
2930;SDS011;1475;51.454;7.150;2022-07-04T01:09:58;4.05;;;2.20;;
2930;SDS011;1475;51.454;7.150;2022-07-04T01:12:27;4.90;;;2.40;;
2930;SDS011;1475;51.454;7.150;2022-07-04T01:14:55;4.95;;;2.50;;
2930;SDS011;1475;51.454;7.150;2022-07-04T01:17:21;5.20;;;2.90;;
2930;SDS011;1475;51.454;7.150;2022-07-04T01:19:48;5.15;;;2.42;;
2930;SDS011;1475;51.454;7.150;2022-07-04T01:22:16;4.33;;;2.53;;
2930;SDS011;1475;51.454;7.150;2022-07-04T01:24:44;5.03;;;2.30;;
2930;SDS011;1475;51.454;7.150;2022-07-04T01:27:11;5.33;;;2.60;;
2930;SDS011;1475;51.454;7.150;2022-07-04T01:29:38;6.00;;;2.63;;
2930;SDS011;1475;51.454;7.150;2022-07-04T01:32:05;3.97;;;2.35;;
2930;SDS011;1475;51.454;7.150;2022-07-04T01:34:33;4.45;;;2.70;;
2930;SDS011;1475;51.454;7.150;2022-07-04T01:37:00;4.50;;;2.30;;
2930;SDS011;1475;51.454;7.150;2022-07-04T01:39:28;4.35;;;2.58;;
2930;SDS011;1475;51.454;7.150;2022-07-04T01:41:56;5.28;;;2.90;;
2930;SDS011;1475;51.454;7.150;2022-07-04T01:44:22;5.18;;;2.60;;
2930;SDS011;1475;51.454;7.150;2022-07-04T01:46:49;6.40;;;3.03;;
2930;SDS011;1475;51.454;7.150;2022-07-04T01:49:16;5.05;;;2.97;;
2930;SDS011;1475;51.454;7.150;2022-07-04T01:51:43;4.95;;;3.20;;
2930;SDS011;1475;51.454;7.150;2022-07-04T01:54:11;6.25;;;3.10;;
2930;SDS011;1475;51.454;7.150;2022-07-04T01:56:39;5.00;;;3.30;;
2930;SDS011;1475;51.454;7.150;2022-07-04T01:59:06;5.50;;;3.00;;
2930;SDS011;1475;51.454;7.150;2022-07-04T02:01:33;4.75;;;2.92;;
2930;SDS011;1475;51.454;7.150;2022-07-04T02:04:00;5.80;;;2.70;;
2930;SDS011;1475;51.454;7.150;2022-07-04T02:06:28;5.35;;;3.00;;
2930;SDS011;1475;51.454;7.150;2022-07-04T02:08:55;5.07;;;2.90;;
2930;SDS011;1475;51.454;7.150;2022-07-04T02:11:41;6.00;;;2.80;;
2930;SDS011;1475;51.454;7.150;2022-07-04T02:14:27;5.88;;;2.83;;
2930;SDS011;1475;51.454;7.150;2022-07-04T02:16:53;7.68;;;3.30;;
2930;SDS011;1475;51.454;7.150;2022-07-04T02:19:20;5.15;;;3.75;;
2930;SDS011;1475;51.454;7.150;2022-07-04T02:21:47;4.00;;;3.03;;
2930;SDS011;1475;51.454;7.150;2022-07-04T02:24:14;5.65;;;3.50;;
2930;SDS011;1475;51.454;7.150;2022-07-04T02:26:42;5.28;;;3.50;;
2930;SDS011;1475;51.454;7.150;2022-07-04T02:29:09;5.18;;;3.13;;
2930;SDS011;1475;51.454;7.150;2022-07-04T02:31:36;7.03;;;2.90;;
2930;SDS011;1475;51.454;7.150;2022-07-04T02:34:03;6.22;;;3.38;;
2930;SDS011;1475;51.454;7.150;2022-07-04T02:36:29;5.47;;;3.38;;
2930;SDS011;1475;51.454;7.150;2022-07-04T02:38:56;4.75;;;3.10;;
2930;SDS011;1475;51.454;7.150;2022-07-04T02:41:23;5.80;;;3.65;;
2930;SDS011;1475;51.454;7.150;2022-07-04T02:43:51;5.78;;;3.55;;
2930;SDS011;1475;51.454;7.150;2022-07-04T02:46:18;5.55;;;3.20;;
2930;SDS011;1475;51.454;7.150;2022-07-04T02:48:45;6.10;;;2.92;;
2930;SDS011;1475;51.454;7.150;2022-07-04T02:51:11;5.40;;;3.08;;
2930;SDS011;1475;51.454;7.150;2022-07-04T02:53:38;4.28;;;3.10;;
2930;SDS011;1475;51.454;7.150;2022-07-04T02:56:05;6.70;;;3.60;;
2930;SDS011;1475;51.454;7.150;2022-07-04T02:58:32;7.45;;;3.20;;
2930;SDS011;1475;51.454;7.150;2022-07-04T03:01:01;4.57;;;2.60;;
2930;SDS011;1475;51.454;7.150;2022-07-04T03:03:28;6.75;;;3.60;;
2930;SDS011;1475;51.454;7.150;2022-07-04T03:05:54;5.85;;;3.60;;
2930;SDS011;1475;51.454;7.150;2022-07-04T03:08:21;4.60;;;3.20;;
2930;SDS011;1475;51.454;7.150;2022-07-04T03:10:48;5.53;;;3.33;;
2930;SDS011;1475;51.454;7.150;2022-07-04T03:13:16;7.45;;;3.30;;
2930;SDS011;1475;51.454;7.150;2022-07-04T03:15:43;5.75;;;3.10;;
2930;SDS011;1475;51.454;7.150;2022-07-04T03:18:12;4.40;;;3.08;;
2930;SDS011;1475;51.454;7.150;2022-07-04T03:20:38;6.47;;;3.40;;
2930;SDS011;1475;51.454;7.150;2022-07-04T03:23:05;6.65;;;3.70;;
2930;SDS011;1475;51.454;7.150;2022-07-04T03:25:32;5.70;;;4.13;;
2930;SDS011;1475;51.454;7.150;2022-07-04T03:28:00;7.20;;;4.10;;
2930;SDS011;1475;51.454;7.150;2022-07-04T03:30:27;9.00;;;3.87;;
2930;SDS011;1475;51.454;7.150;2022-07-04T03:32:53;7.78;;;3.60;;
2930;SDS011;1475;51.454;7.150;2022-07-04T03:35:22;5.50;;;3.40;;
2930;SDS011;1475;51.454;7.150;2022-07-04T03:37:49;8.20;;;3.90;;
2930;SDS011;1475;51.454;7.150;2022-07-04T03:40:16;7.77;;;3.80;;
2930;SDS011;1475;51.454;7.150;2022-07-04T03:42:43;7.47;;;4.88;;
2930;SDS011;1475;51.454;7.150;2022-07-04T03:45:10;9.52;;;4.57;;
2930;SDS011;1475;51.454;7.150;2022-07-04T03:47:37;8.38;;;4.40;;
2930;SDS011;1475;51.454;7.150;2022-07-04T03:50:04;8.45;;;4.25;;
2930;SDS011;1475;51.454;7.150;2022-07-04T03:52:32;6.30;;;3.90;;
2930;SDS011;1475;51.454;7.150;2022-07-04T03:54:59;8.55;;;4.90;;
2930;SDS011;1475;51.454;7.150;2022-07-04T03:57:26;9.57;;;4.68;;
2930;SDS011;1475;51.454;7.150;2022-07-04T03:59:53;8.52;;;5.10;;
2930;SDS011;1475;51.454;7.150;2022-07-04T04:02:20;7.82;;;5.00;;
2930;SDS011;1475;51.454;7.150;2022-07-04T04:04:46;7.20;;;4.90;;
2930;SDS011;1475;51.454;7.150;2022-07-04T04:07:32;7.30;;;5.23;;
2930;SDS011;1475;51.454;7.150;2022-07-04T04:09:59;7.33;;;5.17;;
2930;SDS011;1475;51.454;7.150;2022-07-04T04:12:26;9.20;;;5.50;;
2930;SDS011;1475;51.454;7.150;2022-07-04T04:14:52;8.00;;;5.40;;
2930;SDS011;1475;51.454;7.150;2022-07-04T04:17:19;7.30;;;5.30;;
2930;SDS011;1475;51.454;7.150;2022-07-04T04:19:46;7.95;;;5.63;;
2930;SDS011;1475;51.454;7.150;2022-07-04T04:22:13;6.82;;;5.50;;
2930;SDS011;1475;51.454;7.150;2022-07-04T04:24:41;7.30;;;5.63;;
2930;SDS011;1475;51.454;7.150;2022-07-04T04:27:08;8.45;;;6.00;;
2930;SDS011;1475;51.454;7.150;2022-07-04T04:29:34;8.27;;;5.90;;
2930;SDS011;1475;51.454;7.150;2022-07-04T04:32:01;10.77;;;5.70;;
2930;SDS011;1475;51.454;7.150;2022-07-04T04:34:28;12.73;;;6.50;;
2930;SDS011;1475;51.454;7.150;2022-07-04T04:36:55;10.77;;;6.20;;
2930;SDS011;1475;51.454;7.150;2022-07-04T04:39:22;13.43;;;6.70;;
2930;SDS011;1475;51.454;7.150;2022-07-04T04:41:50;15.63;;;5.90;;
2930;SDS011;1475;51.454;7.150;2022-07-04T04:44:18;11.07;;;6.20;;
2930;SDS011;1475;51.454;7.150;2022-07-04T04:46:45;10.43;;;6.63;;
2930;SDS011;1475;51.454;7.150;2022-07-04T04:49:11;10.82;;;7.15;;
2930;SDS011;1475;51.454;7.150;2022-07-04T04:51:38;11.32;;;6.97;;
2930;SDS011;1475;51.454;7.150;2022-07-04T04:54:05;10.70;;;7.75;;
2930;SDS011;1475;51.454;7.150;2022-07-04T04:56:32;9.35;;;6.70;;
2930;SDS011;1475;51.454;7.150;2022-07-04T04:59:00;10.75;;;7.63;;
2930;SDS011;1475;51.454;7.150;2022-07-04T05:01:27;10.45;;;8.18;;
2930;SDS011;1475;51.454;7.150;2022-07-04T05:03:54;12.18;;;8.20;;
2930;SDS011;1475;51.454;7.150;2022-07-04T05:06:21;11.30;;;7.50;;
2930;SDS011;1475;51.454;7.150;2022-07-04T05:08:48;10.50;;;7.20;;
2930;SDS011;1475;51.454;7.150;2022-07-04T05:11:15;8.60;;;6.30;;
2930;SDS011;1475;51.454;7.150;2022-07-04T05:13:42;10.13;;;7.47;;
2930;SDS011;1475;51.454;7.150;2022-07-04T05:16:10;12.23;;;6.50;;
2930;SDS011;1475;51.454;7.150;2022-07-04T05:18:37;10.20;;;7.72;;
2930;SDS011;1475;51.454;7.150;2022-07-04T05:21:03;9.88;;;7.18;;
2930;SDS011;1475;51.454;7.150;2022-07-04T05:23:30;10.93;;;6.47;;
2930;SDS011;1475;51.454;7.150;2022-07-04T05:25:58;10.57;;;7.60;;
2930;SDS011;1475;51.454;7.150;2022-07-04T05:28:24;11.60;;;6.75;;
2930;SDS011;1475;51.454;7.150;2022-07-04T05:30:51;9.65;;;6.65;;
2930;SDS011;1475;51.454;7.150;2022-07-04T05:33:19;8.43;;;6.10;;
2930;SDS011;1475;51.454;7.150;2022-07-04T05:35:46;7.85;;;6.43;;
2930;SDS011;1475;51.454;7.150;2022-07-04T05:38:13;9.52;;;6.70;;
2930;SDS011;1475;51.454;7.150;2022-07-04T05:40:40;9.07;;;5.67;;
2930;SDS011;1475;51.454;7.150;2022-07-04T05:43:06;9.32;;;5.63;;
2930;SDS011;1475;51.454;7.150;2022-07-04T05:45:33;8.00;;;5.50;;
2930;SDS011;1475;51.454;7.150;2022-07-04T05:48:00;10.70;;;5.72;;
2930;SDS011;1475;51.454;7.150;2022-07-04T05:50:28;9.18;;;5.28;;
2930;SDS011;1475;51.454;7.150;2022-07-04T05:52:55;12.52;;;5.70;;
2930;SDS011;1475;51.454;7.150;2022-07-04T05:55:22;9.43;;;4.75;;
2930;SDS011;1475;51.454;7.150;2022-07-04T05:57:48;10.23;;;5.50;;
2930;SDS011;1475;51.454;7.150;2022-07-04T06:00:15;8.32;;;4.72;;
2930;SDS011;1475;51.454;7.150;2022-07-04T06:02:43;9.25;;;4.90;;
2930;SDS011;1475;51.454;7.150;2022-07-04T06:05:10;8.75;;;4.70;;
2930;SDS011;1475;51.454;7.150;2022-07-04T06:07:38;7.25;;;3.92;;
2930;SDS011;1475;51.454;7.150;2022-07-04T06:10:05;6.50;;;4.22;;
2930;SDS011;1475;51.454;7.150;2022-07-04T06:12:33;7.10;;;4.88;;
2930;SDS011;1475;51.454;7.150;2022-07-04T06:15:00;6.28;;;4.43;;
2930;SDS011;1475;51.454;7.150;2022-07-04T06:17:27;6.13;;;4.28;;
2930;SDS011;1475;51.454;7.150;2022-07-04T06:19:54;6.18;;;4.50;;
2930;SDS011;1475;51.454;7.150;2022-07-04T06:22:20;7.28;;;4.20;;
2930;SDS011;1475;51.454;7.150;2022-07-04T06:24:50;6.32;;;4.30;;
2930;SDS011;1475;51.454;7.150;2022-07-04T06:27:17;6.63;;;3.60;;
2930;SDS011;1475;51.454;7.150;2022-07-04T06:29:44;11.23;;;4.50;;
2930;SDS011;1475;51.454;7.150;2022-07-04T06:32:11;6.90;;;4.20;;
2930;SDS011;1475;51.454;7.150;2022-07-04T06:34:38;6.90;;;4.50;;
2930;SDS011;1475;51.454;7.150;2022-07-04T06:37:22;9.82;;;6.05;;
2930;SDS011;1475;51.454;7.150;2022-07-04T06:39:50;6.32;;;4.00;;
2930;SDS011;1475;51.454;7.150;2022-07-04T06:42:17;9.00;;;4.72;;
2930;SDS011;1475;51.454;7.150;2022-07-04T06:44:44;6.13;;;4.50;;
2930;SDS011;1475;51.454;7.150;2022-07-04T06:47:11;5.13;;;3.72;;
2930;SDS011;1475;51.454;7.150;2022-07-04T06:49:37;6.07;;;4.25;;
2930;SDS011;1475;51.454;7.150;2022-07-04T06:52:04;5.40;;;3.08;;
2930;SDS011;1475;51.454;7.150;2022-07-04T06:54:31;4.72;;;3.17;;
2930;SDS011;1475;51.454;7.150;2022-07-04T06:57:00;4.88;;;2.85;;
2930;SDS011;1475;51.454;7.150;2022-07-04T06:59:26;4.05;;;2.67;;
2930;SDS011;1475;51.454;7.150;2022-07-04T07:01:53;4.80;;;2.33;;
2930;SDS011;1475;51.454;7.150;2022-07-04T07:04:20;5.13;;;2.17;;
2930;SDS011;1475;51.454;7.150;2022-07-04T07:06:47;4.95;;;2.40;;
2930;SDS011;1475;51.454;7.150;2022-07-04T07:09:14;4.55;;;2.13;;
2930;SDS011;1475;51.454;7.150;2022-07-04T07:11:40;3.97;;;1.90;;
2930;SDS011;1475;51.454;7.150;2022-07-04T07:14:08;4.22;;;2.42;;
2930;SDS011;1475;51.454;7.150;2022-07-04T07:16:35;3.95;;;2.10;;
2930;SDS011;1475;51.454;7.150;2022-07-04T07:19:02;4.10;;;1.90;;
2930;SDS011;1475;51.454;7.150;2022-07-04T07:21:29;5.20;;;2.33;;
2930;SDS011;1475;51.454;7.150;2022-07-04T07:23:56;6.00;;;2.78;;
2930;SDS011;1475;51.454;7.150;2022-07-04T07:26:23;7.03;;;2.95;;
2930;SDS011;1475;51.454;7.150;2022-07-04T07:28:49;5.72;;;2.70;;
2930;SDS011;1475;51.454;7.150;2022-07-04T07:31:18;7.22;;;2.80;;
2930;SDS011;1475;51.454;7.150;2022-07-04T07:33:44;4.97;;;2.70;;
2930;SDS011;1475;51.454;7.150;2022-07-04T07:36:11;4.50;;;2.10;;
2930;SDS011;1475;51.454;7.150;2022-07-04T07:38:38;4.75;;;2.55;;
2930;SDS011;1475;51.454;7.150;2022-07-04T07:41:07;3.83;;;2.08;;
2930;SDS011;1475;51.454;7.150;2022-07-04T07:43:34;3.60;;;1.80;;
2930;SDS011;1475;51.454;7.150;2022-07-04T07:46:01;5.45;;;1.90;;
2930;SDS011;1475;51.454;7.150;2022-07-04T07:48:30;4.47;;;2.30;;
2930;SDS011;1475;51.454;7.150;2022-07-04T07:50:56;4.10;;;1.90;;
2930;SDS011;1475;51.454;7.150;2022-07-04T07:53:23;4.05;;;2.40;;
2930;SDS011;1475;51.454;7.150;2022-07-04T07:55:50;4.53;;;2.38;;
2930;SDS011;1475;51.454;7.150;2022-07-04T07:58:17;4.30;;;1.70;;
2930;SDS011;1475;51.454;7.150;2022-07-04T08:00:44;5.40;;;1.50;;
2930;SDS011;1475;51.454;7.150;2022-07-04T08:03:11;3.25;;;1.60;;
2930;SDS011;1475;51.454;7.150;2022-07-04T08:05:57;3.63;;;2.15;;
2930;SDS011;1475;51.454;7.150;2022-07-04T08:08:24;4.60;;;1.95;;
2930;SDS011;1475;51.454;7.150;2022-07-04T08:10:51;8.03;;;2.10;;
2930;SDS011;1475;51.454;7.150;2022-07-04T08:13:17;2.70;;;1.40;;
2930;SDS011;1475;51.454;7.150;2022-07-04T08:15:44;3.70;;;1.90;;
2930;SDS011;1475;51.454;7.150;2022-07-04T08:18:11;4.00;;;1.58;;
2930;SDS011;1475;51.454;7.150;2022-07-04T08:20:38;4.30;;;1.83;;
2930;SDS011;1475;51.454;7.150;2022-07-04T08:23:07;3.00;;;1.80;;
2930;SDS011;1475;51.454;7.150;2022-07-04T08:25:33;3.72;;;1.50;;
2930;SDS011;1475;51.454;7.150;2022-07-04T08:28:00;2.58;;;1.58;;
2930;SDS011;1475;51.454;7.150;2022-07-04T08:30:27;3.20;;;1.30;;
2930;SDS011;1475;51.454;7.150;2022-07-04T08:32:54;4.88;;;1.70;;
2930;SDS011;1475;51.454;7.150;2022-07-04T08:35:21;5.20;;;1.52;;
2930;SDS011;1475;51.454;7.150;2022-07-04T08:37:47;3.30;;;1.70;;
2930;SDS011;1475;51.454;7.150;2022-07-04T08:40:19;3.85;;;1.30;;
2930;SDS011;1475;51.454;7.150;2022-07-04T08:42:48;4.88;;;1.58;;
2930;SDS011;1475;51.454;7.150;2022-07-04T08:45:16;3.55;;;1.25;;
2930;SDS011;1475;51.454;7.150;2022-07-04T08:47:43;2.77;;;1.27;;
2930;SDS011;1475;51.454;7.150;2022-07-04T08:50:15;2.58;;;1.23;;
2930;SDS011;1475;51.454;7.150;2022-07-04T08:52:52;4.07;;;1.35;;
2930;SDS011;1475;51.454;7.150;2022-07-04T08:55:21;3.28;;;1.50;;
2930;SDS011;1475;51.454;7.150;2022-07-04T08:58:07;3.47;;;1.30;;
2930;SDS011;1475;51.454;7.150;2022-07-04T09:00:55;4.20;;;1.40;;
2930;SDS011;1475;51.454;7.150;2022-07-04T09:03:23;3.80;;;1.70;;
2930;SDS011;1475;51.454;7.150;2022-07-04T09:05:50;4.93;;;1.80;;
2930;SDS011;1475;51.454;7.150;2022-07-04T09:08:18;3.42;;;1.40;;
2930;SDS011;1475;51.454;7.150;2022-07-04T09:10:47;4.15;;;1.70;;
2930;SDS011;1475;51.454;7.150;2022-07-04T09:13:14;5.05;;;1.40;;
2930;SDS011;1475;51.454;7.150;2022-07-04T09:15:42;2.70;;;1.33;;
2930;SDS011;1475;51.454;7.150;2022-07-04T09:18:21;4.80;;;1.85;;
2930;SDS011;1475;51.454;7.150;2022-07-04T09:20:51;4.68;;;1.88;;
2930;SDS011;1475;51.454;7.150;2022-07-04T09:23:19;3.67;;;1.67;;
2930;SDS011;1475;51.454;7.150;2022-07-04T09:25:49;4.15;;;1.70;;
2930;SDS011;1475;51.454;7.150;2022-07-04T09:28:31;4.95;;;1.58;;
2930;SDS011;1475;51.454;7.150;2022-07-04T09:30:58;6.10;;;2.10;;
2930;SDS011;1475;51.454;7.150;2022-07-04T09:36:14;4.37;;;1.60;;
2930;SDS011;1475;51.454;7.150;2022-07-04T09:38:43;3.17;;;1.70;;
2930;SDS011;1475;51.454;7.150;2022-07-04T09:41:11;4.43;;;2.05;;
2930;SDS011;1475;51.454;7.150;2022-07-04T09:44:00;3.22;;;1.88;;
2930;SDS011;1475;51.454;7.150;2022-07-04T09:46:28;3.30;;;1.60;;
2930;SDS011;1475;51.454;7.150;2022-07-04T09:48:55;2.90;;;1.60;;
2930;SDS011;1475;51.454;7.150;2022-07-04T09:51:35;3.85;;;1.60;;
2930;SDS011;1475;51.454;7.150;2022-07-04T09:54:16;5.20;;;1.90;;
2930;SDS011;1475;51.454;7.150;2022-07-04T09:56:51;3.80;;;1.50;;
2930;SDS011;1475;51.454;7.150;2022-07-04T09:59:20;4.30;;;1.50;;
2930;SDS011;1475;51.454;7.150;2022-07-04T10:01:47;3.47;;;1.60;;
2930;SDS011;1475;51.454;7.150;2022-07-04T10:04:15;4.43;;;2.47;;
2930;SDS011;1475;51.454;7.150;2022-07-04T10:06:46;4.30;;;2.10;;
2930;SDS011;1475;51.454;7.150;2022-07-04T10:09:13;4.13;;;2.00;;
2930;SDS011;1475;51.454;7.150;2022-07-04T10:11:42;3.35;;;1.60;;
2930;SDS011;1475;51.454;7.150;2022-07-04T10:14:11;4.27;;;1.50;;
2930;SDS011;1475;51.454;7.150;2022-07-04T10:16:40;2.83;;;1.40;;
2930;SDS011;1475;51.454;7.150;2022-07-04T10:19:08;3.75;;;1.80;;
2930;SDS011;1475;51.454;7.150;2022-07-04T10:21:37;3.47;;;1.35;;
2930;SDS011;1475;51.454;7.150;2022-07-04T10:24:04;4.18;;;1.88;;
2930;SDS011;1475;51.454;7.150;2022-07-04T10:26:32;2.90;;;1.55;;
2930;SDS011;1475;51.454;7.150;2022-07-04T10:28:59;3.30;;;1.48;;
2930;SDS011;1475;51.454;7.150;2022-07-04T10:31:28;2.88;;;1.50;;
2930;SDS011;1475;51.454;7.150;2022-07-04T10:33:57;3.40;;;1.30;;
2930;SDS011;1475;51.454;7.150;2022-07-04T10:36:26;3.50;;;1.40;;
2930;SDS011;1475;51.454;7.150;2022-07-04T10:38:55;4.45;;;1.40;;
2930;SDS011;1475;51.454;7.150;2022-07-04T10:41:25;4.43;;;1.50;;
2930;SDS011;1475;51.454;7.150;2022-07-04T10:43:54;8.07;;;2.10;;
2930;SDS011;1475;51.454;7.150;2022-07-04T10:46:25;3.47;;;1.67;;
2930;SDS011;1475;51.454;7.150;2022-07-04T10:48:55;5.82;;;2.17;;
2930;SDS011;1475;51.454;7.150;2022-07-04T10:51:39;5.00;;;1.70;;
2930;SDS011;1475;51.454;7.150;2022-07-04T10:54:09;4.00;;;1.40;;
2930;SDS011;1475;51.454;7.150;2022-07-04T10:56:38;4.22;;;1.65;;
2930;SDS011;1475;51.454;7.150;2022-07-04T10:59:07;4.18;;;1.80;;
2930;SDS011;1475;51.454;7.150;2022-07-04T11:01:37;4.33;;;1.93;;
2930;SDS011;1475;51.454;7.150;2022-07-04T11:04:04;3.40;;;1.60;;
2930;SDS011;1475;51.454;7.150;2022-07-04T11:06:49;3.88;;;2.15;;
2930;SDS011;1475;51.454;7.150;2022-07-04T11:09:19;3.17;;;1.50;;
2930;SDS011;1475;51.454;7.150;2022-07-04T11:11:48;3.20;;;1.40;;
2930;SDS011;1475;51.454;7.150;2022-07-04T11:14:29;4.70;;;1.85;;
2930;SDS011;1475;51.454;7.150;2022-07-04T11:16:58;3.10;;;1.70;;
2930;SDS011;1475;51.454;7.150;2022-07-04T11:19:25;4.03;;;1.77;;
2930;SDS011;1475;51.454;7.150;2022-07-04T11:21:53;5.60;;;2.13;;
2930;SDS011;1475;51.454;7.150;2022-07-04T11:24:20;7.15;;;2.00;;
2930;SDS011;1475;51.454;7.150;2022-07-04T11:26:47;4.00;;;1.70;;
2930;SDS011;1475;51.454;7.150;2022-07-04T11:29:14;3.95;;;1.83;;
2930;SDS011;1475;51.454;7.150;2022-07-04T11:31:42;3.10;;;1.80;;
2930;SDS011;1475;51.454;7.150;2022-07-04T11:34:12;2.90;;;1.40;;
2930;SDS011;1475;51.454;7.150;2022-07-04T11:36:39;4.60;;;1.70;;
2930;SDS011;1475;51.454;7.150;2022-07-04T11:39:08;2.70;;;1.50;;
2930;SDS011;1475;51.454;7.150;2022-07-04T11:41:37;4.20;;;1.80;;
2930;SDS011;1475;51.454;7.150;2022-07-04T11:44:23;4.47;;;1.42;;
2930;SDS011;1475;51.454;7.150;2022-07-04T11:47:09;3.05;;;1.30;;
2930;SDS011;1475;51.454;7.150;2022-07-04T11:49:45;3.25;;;1.48;;
2930;SDS011;1475;51.454;7.150;2022-07-04T11:52:15;3.40;;;1.13;;
2930;SDS011;1475;51.454;7.150;2022-07-04T11:54:43;3.07;;;1.50;;
2930;SDS011;1475;51.454;7.150;2022-07-04T11:57:11;2.50;;;1.30;;
2930;SDS011;1475;51.454;7.150;2022-07-04T11:59:39;5.13;;;1.65;;
2930;SDS011;1475;51.454;7.150;2022-07-04T12:02:13;4.03;;;1.60;;
2930;SDS011;1475;51.454;7.150;2022-07-04T12:04:41;3.60;;;1.33;;
2930;SDS011;1475;51.454;7.150;2022-07-04T12:07:11;2.42;;;1.00;;
2930;SDS011;1475;51.454;7.150;2022-07-04T12:09:39;2.58;;;1.50;;
2930;SDS011;1475;51.454;7.150;2022-07-04T12:12:06;3.15;;;1.27;;
2930;SDS011;1475;51.454;7.150;2022-07-04T12:14:34;3.00;;;1.65;;
2930;SDS011;1475;51.454;7.150;2022-07-04T12:17:14;2.95;;;1.20;;
2930;SDS011;1475;51.454;7.150;2022-07-04T12:19:54;3.60;;;1.30;;
2930;SDS011;1475;51.454;7.150;2022-07-04T12:22:29;3.13;;;1.60;;
2930;SDS011;1475;51.454;7.150;2022-07-04T12:24:57;3.00;;;1.20;;
2930;SDS011;1475;51.454;7.150;2022-07-04T12:27:25;3.72;;;1.60;;
2930;SDS011;1475;51.454;7.150;2022-07-04T12:29:53;2.90;;;1.30;;
2930;SDS011;1475;51.454;7.150;2022-07-04T12:32:21;3.00;;;1.30;;
2930;SDS011;1475;51.454;7.150;2022-07-04T12:34:48;2.27;;;1.13;;
2930;SDS011;1475;51.454;7.150;2022-07-04T12:37:15;3.70;;;1.52;;
2930;SDS011;1475;51.454;7.150;2022-07-04T12:39:44;3.70;;;1.30;;
2930;SDS011;1475;51.454;7.150;2022-07-04T12:42:12;3.20;;;1.70;;
2930;SDS011;1475;51.454;7.150;2022-07-04T12:44:41;2.50;;;1.20;;
2930;SDS011;1475;51.454;7.150;2022-07-04T12:47:10;3.50;;;1.90;;
2930;SDS011;1475;51.454;7.150;2022-07-04T12:49:42;2.60;;;1.50;;
2930;SDS011;1475;51.454;7.150;2022-07-04T12:52:12;3.45;;;1.70;;
2930;SDS011;1475;51.454;7.150;2022-07-04T12:54:40;3.60;;;1.77;;
2930;SDS011;1475;51.454;7.150;2022-07-04T12:57:13;4.72;;;1.70;;
2930;SDS011;1475;51.454;7.150;2022-07-04T12:59:40;3.30;;;1.75;;
2930;SDS011;1475;51.454;7.150;2022-07-04T13:02:08;3.55;;;1.85;;
2930;SDS011;1475;51.454;7.150;2022-07-04T13:04:37;4.10;;;1.80;;
2930;SDS011;1475;51.454;7.150;2022-07-04T13:07:14;2.80;;;1.37;;
2930;SDS011;1475;51.454;7.150;2022-07-04T13:09:42;3.15;;;1.40;;
2930;SDS011;1475;51.454;7.150;2022-07-04T13:12:09;3.25;;;1.80;;
2930;SDS011;1475;51.454;7.150;2022-07-04T13:14:54;3.95;;;1.60;;
2930;SDS011;1475;51.454;7.150;2022-07-04T13:17:22;4.00;;;1.55;;
2930;SDS011;1475;51.454;7.150;2022-07-04T13:19:50;3.60;;;1.80;;
2930;SDS011;1475;51.454;7.150;2022-07-04T13:22:18;3.03;;;1.60;;
2930;SDS011;1475;51.454;7.150;2022-07-04T13:24:46;3.30;;;1.50;;
2930;SDS011;1475;51.454;7.150;2022-07-04T13:27:13;3.60;;;1.55;;
2930;SDS011;1475;51.454;7.150;2022-07-04T13:29:40;3.42;;;1.50;;
2930;SDS011;1475;51.454;7.150;2022-07-04T13:32:09;3.35;;;1.40;;
2930;SDS011;1475;51.454;7.150;2022-07-04T13:34:36;2.50;;;1.30;;
2930;SDS011;1475;51.454;7.150;2022-07-04T13:37:03;3.20;;;1.48;;
2930;SDS011;1475;51.454;7.150;2022-07-04T13:39:30;2.97;;;1.30;;
2930;SDS011;1475;51.454;7.150;2022-07-04T13:41:57;2.90;;;1.50;;
2930;SDS011;1475;51.454;7.150;2022-07-04T13:44:24;3.30;;;1.30;;
2930;SDS011;1475;51.454;7.150;2022-07-04T13:46:51;2.80;;;1.30;;
2930;SDS011;1475;51.454;7.150;2022-07-04T13:49:19;4.45;;;1.30;;
2930;SDS011;1475;51.454;7.150;2022-07-04T13:51:46;3.33;;;1.47;;
2930;SDS011;1475;51.454;7.150;2022-07-04T13:54:12;3.73;;;1.60;;
2930;SDS011;1475;51.454;7.150;2022-07-04T13:56:39;3.63;;;1.40;;
2930;SDS011;1475;51.454;7.150;2022-07-04T13:59:07;4.07;;;1.40;;
2930;SDS011;1475;51.454;7.150;2022-07-04T14:01:34;3.38;;;1.55;;
2930;SDS011;1475;51.454;7.150;2022-07-04T14:04:01;4.85;;;1.52;;
2930;SDS011;1475;51.454;7.150;2022-07-04T14:06:30;3.63;;;1.20;;
2930;SDS011;1475;51.454;7.150;2022-07-04T14:08:58;2.70;;;1.30;;
2930;SDS011;1475;51.454;7.150;2022-07-04T14:11:24;3.20;;;1.60;;
2930;SDS011;1475;51.454;7.150;2022-07-04T14:13:51;2.97;;;1.40;;
2930;SDS011;1475;51.454;7.150;2022-07-04T14:16:18;3.92;;;1.90;;
2930;SDS011;1475;51.454;7.150;2022-07-04T14:18:45;3.00;;;1.60;;
2930;SDS011;1475;51.454;7.150;2022-07-04T14:21:12;5.18;;;2.13;;
2930;SDS011;1475;51.454;7.150;2022-07-04T14:23:40;4.03;;;1.50;;
2930;SDS011;1475;51.454;7.150;2022-07-04T14:26:07;3.30;;;1.63;;
2930;SDS011;1475;51.454;7.150;2022-07-04T14:28:36;3.70;;;1.50;;
2930;SDS011;1475;51.454;7.150;2022-07-04T14:31:03;4.78;;;1.40;;
2930;SDS011;1475;51.454;7.150;2022-07-04T14:33:30;3.35;;;1.63;;
2930;SDS011;1475;51.454;7.150;2022-07-04T14:35:57;3.25;;;1.30;;
2930;SDS011;1475;51.454;7.150;2022-07-04T14:38:25;4.50;;;1.40;;
2930;SDS011;1475;51.454;7.150;2022-07-04T14:40:53;3.72;;;1.63;;
2930;SDS011;1475;51.454;7.150;2022-07-04T14:43:20;2.70;;;1.70;;
2930;SDS011;1475;51.454;7.150;2022-07-04T14:45:46;3.28;;;1.60;;
2930;SDS011;1475;51.454;7.150;2022-07-04T14:48:14;3.53;;;1.50;;
2930;SDS011;1475;51.454;7.150;2022-07-04T14:50:41;4.15;;;1.50;;
2930;SDS011;1475;51.454;7.150;2022-07-04T14:53:08;4.18;;;1.50;;
2930;SDS011;1475;51.454;7.150;2022-07-04T14:55:35;4.00;;;1.30;;
2930;SDS011;1475;51.454;7.150;2022-07-04T14:58:03;3.70;;;1.60;;
2930;SDS011;1475;51.454;7.150;2022-07-04T15:00:30;3.33;;;1.27;;
2930;SDS011;1475;51.454;7.150;2022-07-04T15:02:57;4.47;;;1.70;;
2930;SDS011;1475;51.454;7.150;2022-07-04T15:05:24;3.70;;;1.50;;
2930;SDS011;1475;51.454;7.150;2022-07-04T15:07:50;5.00;;;1.40;;
2930;SDS011;1475;51.454;7.150;2022-07-04T15:10:20;3.47;;;1.60;;
2930;SDS011;1475;51.454;7.150;2022-07-04T15:12:47;2.88;;;1.40;;
2930;SDS011;1475;51.454;7.150;2022-07-04T15:15:15;3.60;;;1.47;;
2930;SDS011;1475;51.454;7.150;2022-07-04T15:17:42;3.42;;;1.90;;
2930;SDS011;1475;51.454;7.150;2022-07-04T15:20:09;3.10;;;1.50;;
2930;SDS011;1475;51.454;7.150;2022-07-04T15:22:54;4.90;;;1.88;;
2930;SDS011;1475;51.454;7.150;2022-07-04T15:25:38;4.40;;;1.65;;